Time;durP1;ratioP1;P1;durP2;ratioP2;P2;SDS_P1;SDS_P2;PMS_P1;PMS_P2;Temp;Humidity;BMP_temperature;BMP_pressure;BME280_temperature;BME280_humidity;BME280_pressure;Samples;Min_cycle;Max_cycle;Signal;HPM_P1;HPM_P2
2024/01/31 00:01:07;;;;;;;811.80;747.33;;;5.20;99.90;;;;;;4986312;28;20042;-77
2024/01/31 00:03:33;;;;;;;822.33;757.30;;;5.20;99.90;;;;;;4984468;28;20050;-77
2024/01/31 00:05:59;;;;;;;768.45;710.40;;;5.20;99.90;;;;;;4985803;28;20042;-77
2024/01/31 00:08:24;;;;;;;774.20;715.97;;;5.20;99.90;;;;;;4984989;28;20107;-77
2024/01/31 00:10:50;;;;;;;761.05;702.95;;;5.20;99.90;;;;;;4986716;28;20074;-77
2024/01/31 00:13:16;;;;;;;784.05;723.42;;;5.20;99.90;;;;;;4984161;28;20740;-77
2024/01/31 00:15:41;;;;;;;793.80;732.55;;;5.20;99.90;;;;;;4986143;28;20122;-77
2024/01/31 00:18:07;;;;;;;773.55;715.15;;;5.20;99.90;;;;;;4985093;28;20137;-77
2024/01/31 00:20:33;;;;;;;758.97;701.17;;;5.30;99.90;;;;;;4986487;28;20047;-77
2024/01/31 00:23:00;;;;;;;788.70;725.50;;;5.20;99.90;;;;;;4985334;28;20426;-76
2024/01/31 00:25:25;;;;;;;793.40;732.35;;;5.20;99.90;;;;;;4984766;28;20042;-77
2024/01/31 00:27:51;;;;;;;783.35;723.00;;;5.20;99.90;;;;;;4985699;28;20448;-77
2024/01/31 00:30:18;;;;;;;827.58;758.50;;;5.20;99.90;;;;;;4985013;28;20054;-77
2024/01/31 00:32:43;;;;;;;753.75;696.80;;;5.20;99.90;;;;;;4986842;28;20189;-77
2024/01/31 00:35:09;;;;;;;774.75;714.05;;;5.20;99.90;;;;;;5013784;28;20129;-77
2024/01/31 00:37:35;;;;;;;747.80;692.50;;;5.20;99.90;;;;;;5003670;28;20125;-77
2024/01/31 00:40:00;;;;;;;746.25;688.22;;;5.20;99.90;;;;;;5003689;28;20073;-77
2024/01/31 00:42:26;;;;;;;768.40;706.58;;;5.30;99.90;;;;;;4985408;28;20500;-77
2024/01/31 00:44:52;;;;;;;701.40;648.72;;;5.20;99.90;;;;;;4984935;28;20498;-77
2024/01/31 00:47:17;;;;;;;745.85;689.08;;;5.20;99.90;;;;;;4985766;28;20042;-77
2024/01/31 00:49:43;;;;;;;722.60;668.42;;;5.30;99.90;;;;;;4984918;28;20395;-77
2024/01/31 00:52:09;;;;;;;701.67;649.55;;;5.30;99.90;;;;;;4984450;28;20046;-77
2024/01/31 00:54:34;;;;;;;743.13;686.80;;;5.30;99.90;;;;;;4985818;28;20133;-77
2024/01/31 00:57:00;;;;;;;717.33;663.95;;;5.90;99.90;;;;;;4985889;28;20046;-77
2024/01/31 00:59:26;;;;;;;702.10;649.83;;;5.20;99.90;;;;;;4984520;28;20401;-77
2024/01/31 01:01:51;;;;;;;699.60;646.20;;;5.20;99.90;;;;;;5002847;28;20329;-76
2024/01/31 01:04:17;;;;;;;692.03;640.47;;;5.20;99.90;;;;;;5004675;28;20125;-77
2024/01/31 01:06:43;;;;;;;636.72;590.50;;;5.30;99.90;;;;;;5002296;28;20058;-77
2024/01/31 01:09:08;;;;;;;661.67;613.72;;;5.60;99.90;;;;;;5001696;28;20049;-77
2024/01/31 01:11:34;;;;;;;689.53;638.05;;;5.30;99.90;;;;;;5004171;28;20405;-77
2024/01/31 01:14:00;;;;;;;701.78;649.13;;;5.30;99.90;;;;;;4984885;28;20096;-77
2024/01/31 01:16:25;;;;;;;679.78;629.28;;;5.30;99.90;;;;;;4985260;28;20058;-77
2024/01/31 01:18:51;;;;;;;691.50;639.92;;;5.30;99.90;;;;;;5003122;28;20046;-77
2024/01/31 01:21:17;;;;;;;653.63;605.35;;;5.30;99.90;;;;;;4996101;28;20096;-77
2024/01/31 01:23:42;;;;;;;708.00;654.60;;;5.30;99.90;;;;;;4983834;28;20069;-77
2024/01/31 01:26:08;;;;;;;628.72;583.05;;;5.20;99.90;;;;;;4985794;28;20046;-76
2024/01/31 01:28:34;;;;;;;621.90;576.90;;;5.20;99.90;;;;;;4982762;28;20114;-77
2024/01/31 01:30:59;;;;;;;628.05;582.33;;;5.20;99.90;;;;;;4984218;28;20418;-77
2024/01/31 01:33:26;;;;;;;599.25;556.10;;;5.20;99.90;;;;;;4984660;28;20050;-76
2024/01/31 01:35:52;;;;;;;633.20;587.25;;;5.20;99.90;;;;;;4989552;28;20134;-76
2024/01/31 01:38:18;;;;;;;639.75;593.65;;;5.20;99.90;;;;;;5004378;28;20119;-77
2024/01/31 01:40:44;;;;;;;617.33;572.75;;;5.20;99.90;;;;;;4985485;28;20456;-77
2024/01/31 01:43:18;;;;;;;560.60;520.80;;;5.20;99.90;;;;;;4984272;28;20427;-76
2024/01/31 01:45:44;;;;;;;617.10;572.10;;;5.20;99.90;;;;;;4983695;28;20050;-77
2024/01/31 01:48:13;;;;;;;595.53;552.83;;;5.20;99.90;;;;;;4984353;28;20046;-76
2024/01/31 01:50:40;;;;;;;542.83;505.40;;;5.20;99.90;;;;;;4983641;28;20054;-77
2024/01/31 01:53:06;;;;;;;549.78;512.03;;;5.20;99.90;;;;;;4984255;28;20127;-77
2024/01/31 01:55:32;;;;;;;599.10;556.65;;;5.10;99.90;;;;;;4982745;28;20062;-77
2024/01/31 01:57:58;;;;;;;564.75;525.22;;;5.10;99.90;;;;;;4983235;28;20092;-76
2024/01/31 02:00:25;;;;;;;534.50;497.95;;;5.10;99.90;;;;;;4991467;28;20046;-76
2024/01/31 02:02:51;;;;;;;535.22;498.42;;;5.10;99.90;;;;;;5001713;28;20447;-77
2024/01/31 02:05:17;;;;;;;532.28;495.67;;;5.00;99.90;;;;;;5002981;28;20049;-77
2024/01/31 02:07:44;;;;;;;621.10;576.75;;;5.00;99.90;;;;;;4986626;28;20577;-77
2024/01/31 02:10:10;;;;;;;607.88;564.15;;;4.90;99.90;;;;;;4992092;28;20580;-77
2024/01/31 02:12:35;;;;;;;623.38;578.05;;;4.90;99.90;;;;;;4998541;28;20054;-76
2024/01/31 02:15:01;;;;;;;619.65;575.30;;;4.80;99.90;;;;;;4983996;28;20043;-76
2024/01/31 02:17:27;;;;;;;667.63;618.35;;;4.70;99.90;;;;;;4982924;28;20054;-76
2024/01/31 02:19:53;;;;;;;644.38;597.28;;;4.70;99.90;;;;;;4985219;28;20050;-77
2024/01/31 02:22:19;;;;;;;667.50;618.90;;;4.60;99.90;;;;;;4988279;28;20099;-76
2024/01/31 02:24:45;;;;;;;689.13;638.25;;;4.60;99.90;;;;;;4986261;28;20556;-77
2024/01/31 02:27:11;;;;;;;646.67;598.95;;;4.70;99.90;;;;;;4987652;28;20054;-77
2024/01/31 02:29:38;;;;;;;660.60;612.33;;;4.40;99.90;;;;;;4987116;28;20055;-77
2024/01/31 02:32:06;;;;;;;709.47;656.60;;;4.40;99.90;;;;;;4986554;28;20123;-77
2024/01/31 02:34:32;;;;;;;661.53;613.25;;;4.40;99.90;;;;;;4978483;28;20160;-77
2024/01/31 02:36:58;;;;;;;649.75;602.03;;;4.40;99.90;;;;;;4987878;28;20042;-77
2024/01/31 02:39:24;;;;;;;653.13;605.65;;;4.30;99.90;;;;;;4986137;28;20466;-77
2024/01/31 02:41:52;;;;;;;704.92;652.55;;;4.50;99.90;;;;;;5002325;28;20046;-76
2024/01/31 02:44:18;;;;;;;723.08;669.45;;;4.20;99.90;;;;;;4996016;28;20504;-76
2024/01/31 02:46:44;;;;;;;733.33;678.67;;;4.10;99.90;;;;;;5018260;28;20058;-77
2024/01/31 02:49:10;;;;;;;741.45;685.67;;;4.10;99.90;;;;;;4970194;28;20046;-77
2024/01/31 02:51:35;;;;;;;752.47;696.17;;;4.50;99.90;;;;;;4985856;28;20058;-76
2024/01/31 02:54:01;;;;;;;732.45;677.97;;;4.10;99.90;;;;;;4986613;28;20090;-77
2024/01/31 02:56:27;;;;;;;700.55;649.00;;;4.10;99.90;;;;;;4986066;28;20387;-77
2024/01/31 02:58:52;;;;;;;670.08;620.90;;;4.40;99.90;;;;;;4985177;28;20061;-77
2024/01/31 03:01:18;;;;;;;719.92;666.67;;;4.00;99.90;;;;;;4985548;28;20071;-76
2024/01/31 03:03:44;;;;;;;701.70;650.15;;;4.00;99.90;;;;;;4986399;28;20323;-77
2024/01/31 03:06:11;;;;;;;700.00;648.33;;;4.10;99.90;;;;;;4986034;28;20037;-77
2024/01/31 03:08:37;;;;;;;675.17;625.83;;;4.10;99.90;;;;;;4986109;28;20449;-76
2024/01/31 03:11:02;;;;;;;777.78;718.70;;;4.00;99.90;;;;;;4987344;28;20053;-77
2024/01/31 03:13:28;;;;;;;743.40;687.20;;;4.00;99.90;;;;;;4984904;28;20773;-77
2024/01/31 03:15:54;;;;;;;714.78;661.42;;;4.10;99.90;;;;;;4988271;28;20046;-77
2024/01/31 03:18:19;;;;;;;768.40;710.17;;;4.10;99.90;;;;;;4986078;28;20046;-77
2024/01/31 03:20:45;;;;;;;735.45;680.30;;;4.10;99.90;;;;;;4986126;28;20451;-77
2024/01/31 03:23:12;;;;;;;747.55;690.83;;;4.20;99.90;;;;;;4985603;28;20045;-77
2024/01/31 03:25:37;;;;;;;673.88;623.80;;;4.30;99.90;;;;;;4986145;28;20064;-77
2024/01/31 03:28:03;;;;;;;718.78;665.72;;;4.10;99.90;;;;;;4985101;28;20046;-77
2024/01/31 03:30:29;;;;;;;663.42;614.72;;;4.10;99.90;;;;;;4984270;28;20048;-77
2024/01/31 03:32:55;;;;;;;664.40;615.35;;;4.10;99.90;;;;;;4986864;28;20050;-77
2024/01/31 03:35:21;;;;;;;641.20;594.58;;;4.10;99.90;;;;;;4987170;28;20103;-76
2024/01/31 03:37:46;;;;;;;707.47;654.47;;;4.10;99.90;;;;;;4985128;28;20068;-77
2024/01/31 03:40:12;;;;;;;712.20;659.78;;;4.10;99.90;;;;;;4987830;28;20067;-77
2024/01/31 03:42:38;;;;;;;702.70;650.03;;;4.10;99.90;;;;;;4984526;28;20463;-77
2024/01/31 03:45:04;;;;;;;643.03;595.58;;;4.10;99.90;;;;;;4986561;28;20065;-77
2024/01/31 03:47:34;;;;;;;681.90;631.60;;;4.10;99.90;;;;;;4985788;28;20038;-77
2024/01/31 03:49:59;;;;;;;694.42;642.72;;;4.10;99.90;;;;;;4985963;28;20069;-77
2024/01/31 03:52:25;;;;;;;653.20;605.25;;;4.10;99.90;;;;;;4987046;28;20038;-77
2024/01/31 03:54:51;;;;;;;686.25;635.03;;;4.10;99.90;;;;;;4987558;28;20688;-77
2024/01/31 03:57:17;;;;;;;656.40;608.40;;;4.30;99.90;;;;;;4984910;28;20058;-77
2024/01/31 03:59:42;;;;;;;652.60;604.88;;;4.50;99.90;;;;;;4986172;28;20462;-77
2024/01/31 04:02:08;;;;;;;662.67;613.92;;;4.10;99.90;;;;;;4984830;28;20038;-77
2024/01/31 04:04:34;;;;;;;657.28;609.55;;;4.20;99.90;;;;;;4987349;28;20127;-77
2024/01/31 04:07:00;;;;;;;639.53;592.75;;;4.20;99.90;;;;;;4984887;28;20158;-77
2024/01/31 04:09:25;;;;;;;687.15;636.47;;;4.20;99.90;;;;;;4985894;28;20045;-77
2024/01/31 04:11:51;;;;;;;709.45;656.95;;;4.20;99.90;;;;;;4984065;28;20046;-77
2024/01/31 04:14:16;;;;;;;716.40;663.35;;;4.10;99.90;;;;;;4984988;28;20180;-77
2024/01/31 04:16:43;;;;;;;618.63;573.78;;;4.00;99.90;;;;;;4971760;28;20054;-77
2024/01/31 04:19:08;;;;;;;622.70;578.13;;;4.00;99.90;;;;;;4978208;28;20129;-77
2024/01/31 04:21:34;;;;;;;614.22;570.08;;;3.90;99.90;;;;;;4988766;28;20121;-77
2024/01/31 04:24:00;;;;;;;646.78;600.13;;;3.80;99.90;;;;;;4991085;28;20393;-77
2024/01/31 04:26:26;;;;;;;632.92;587.05;;;3.70;99.90;;;;;;4988432;28;20454;-76
2024/01/31 04:28:52;;;;;;;675.83;626.35;;;3.60;99.90;;;;;;4992662;28;20049;-77
2024/01/31 04:31:18;;;;;;;709.47;657.03;;;3.50;99.90;;;;;;4977890;28;20379;-77
2024/01/31 04:33:44;;;;;;;654.28;606.42;;;3.50;99.90;;;;;;4984893;28;20046;-77
2024/01/31 04:36:10;;;;;;;639.85;593.17;;;3.60;99.90;;;;;;4989439;28;20054;-77
2024/01/31 04:38:35;;;;;;;699.13;647.10;;;3.50;99.90;;;;;;4991661;28;20042;-77
2024/01/31 04:41:02;;;;;;;780.83;721.35;;;3.10;99.90;;;;;;4989436;28;20057;-77
2024/01/31 04:43:28;;;;;;;718.10;664.70;;;3.10;99.90;;;;;;4990793;28;20041;-77
2024/01/31 04:45:54;;;;;;;715.10;662.00;;;3.40;99.90;;;;;;4988444;28;20073;-77
2024/01/31 04:48:20;;;;;;;885.83;812.10;;;3.00;99.90;;;;;;4989819;28;20536;-76
2024/01/31 04:50:46;;;;;;;802.60;740.72;;;2.90;99.90;;;;;;4987468;28;20125;-77
2024/01/31 04:53:12;;;;;;;792.80;731.80;;;2.90;99.90;;;;;;4991629;28;20121;-76
2024/01/31 04:55:38;;;;;;;822.53;757.83;;;2.90;99.90;;;;;;4988554;28;20088;-77
2024/01/31 04:58:03;;;;;;;1022.90;928.10;;;2.90;99.90;;;;;;4987886;28;20509;-77
2024/01/31 05:00:29;;;;;;;859.20;789.08;;;2.90;99.90;;;;;;4983778;28;20068;-77
2024/01/31 05:02:55;;;;;;;857.35;789.22;;;2.90;99.90;;;;;;4986321;28;20496;-77
2024/01/31 05:05:21;;;;;;;800.85;739.00;;;3.40;99.90;;;;;;4984233;28;20050;-77
2024/01/31 05:07:46;;;;;;;1015.65;920.05;;;2.90;99.90;;;;;;4983861;28;20085;-77
2024/01/31 05:10:12;;;;;;;969.20;882.30;;;2.80;99.90;;;;;;4986027;28;20097;-77
2024/01/31 05:12:38;;;;;;;995.85;904.08;;;2.80;99.90;;;;;;4982792;28;20125;-77
2024/01/31 05:15:05;;;;;;;1025.50;930.08;;;2.80;99.90;;;;;;4986084;28;20057;-76
2024/01/31 05:17:30;;;;;;;1040.97;940.55;;;2.90;99.90;;;;;;4985202;28;20514;-77
2024/01/31 05:19:56;;;;;;;1017.42;922.50;;;3.20;99.90;;;;;;4983326;28;20068;-77
2024/01/31 05:22:22;;;;;;;972.08;885.42;;;2.90;99.90;;;;;;4998708;28;20053;-76
2024/01/31 05:24:48;;;;;;;941.90;861.20;;;3.30;99.90;;;;;;4994091;28;20078;-77
2024/01/31 05:27:14;;;;;;;963.70;881.13;;;3.10;99.90;;;;;;5030358;28;20054;-77
2024/01/31 05:29:39;;;;;;;965.30;880.33;;;3.00;99.90;;;;;;5003140;28;20050;-77
2024/01/31 05:32:05;;;;;;;935.42;855.58;;;3.00;99.90;;;;;;5034810;28;20061;-76
2024/01/31 05:34:31;;;;;;;962.95;879.95;;;3.00;99.90;;;;;;5019249;28;20053;-77
2024/01/31 05:36:57;;;;;;;956.78;873.28;;;3.00;99.90;;;;;;5002738;28;20038;-76
2024/01/31 05:39:22;;;;;;;862.45;793.15;;;3.40;99.90;;;;;;5004849;28;20080;-77
2024/01/31 05:41:48;;;;;;;993.88;903.50;;;3.10;99.90;;;;;;5000770;28;20050;-76
2024/01/31 05:44:14;;;;;;;1038.68;939.00;;;3.40;99.90;;;;;;5003688;28;20042;-77
2024/01/31 05:46:40;;;;;;;980.58;894.78;;;3.10;99.90;;;;;;5001616;28;20042;-77
2024/01/31 05:49:06;;;;;;;953.00;870.13;;;3.50;99.90;;;;;;5002266;28;20520;-77
2024/01/31 05:51:31;;;;;;;1001.78;910.30;;;3.20;99.90;;;;;;5000947;28;20046;-77
2024/01/31 05:53:57;;;;;;;848.53;782.05;;;3.20;99.90;;;;;;5005549;28;20046;-77
2024/01/31 05:56:23;;;;;;;848.60;781.78;;;3.30;99.90;;;;;;5007970;28;20062;-77
2024/01/31 05:58:49;;;;;;;854.88;786.63;;;3.30;99.90;;;;;;5001141;28;20046;-77
2024/01/31 06:01:15;;;;;;;828.70;764.03;;;3.50;99.90;;;;;;5006525;28;20508;-77
2024/01/31 06:03:40;;;;;;;820.88;757.63;;;3.40;99.90;;;;;;4999695;28;20501;-77
2024/01/31 06:06:06;;;;;;;805.85;742.78;;;3.40;99.90;;;;;;4989250;28;20057;-77
2024/01/31 06:08:33;;;;;;;892.78;819.90;;;3.40;99.90;;;;;;5009967;28;20037;-76
2024/01/31 06:11:03;;;;;;;867.30;797.63;;;3.40;99.90;;;;;;5008679;28;20565;-77
2024/01/31 06:13:30;;;;;;;812.28;749.45;;;3.50;99.90;;;;;;5009336;28;20058;-76
2024/01/31 06:15:56;;;;;;;809.45;746.03;;;3.80;99.90;;;;;;5008048;28;20042;-77
2024/01/31 06:18:22;;;;;;;862.08;793.70;;;3.60;99.90;;;;;;5008602;28;20065;-77
2024/01/31 06:20:49;;;;;;;826.85;761.38;;;3.80;99.90;;;;;;5008399;28;20485;-77
2024/01/31 06:23:15;;;;;;;864.33;795.85;;;3.70;99.90;;;;;;5009797;28;20042;-77
2024/01/31 06:25:41;;;;;;;787.33;727.03;;;3.60;99.90;;;;;;5007750;28;20058;-76
2024/01/31 06:28:07;;;;;;;837.83;772.00;;;3.70;99.90;;;;;;5008523;28;20046;-77
2024/01/31 06:30:40;;;;;;;778.25;719.33;;;3.70;99.90;;;;;;5007389;28;20042;-77
2024/01/31 06:33:07;;;;;;;739.47;683.22;;;3.70;99.90;;;;;;4996904;28;20089;-77
2024/01/31 06:35:34;;;;;;;812.40;749.08;;;3.70;99.90;;;;;;5020146;28;20041;-77
2024/01/31 06:38:00;;;;;;;775.10;717.47;;;3.70;99.90;;;;;;5008282;28;20042;-77
2024/01/31 06:40:26;;;;;;;799.10;737.60;;;3.70;99.90;;;;;;5007782;28;20056;-77
2024/01/31 06:42:52;;;;;;;752.53;696.22;;;3.80;99.90;;;;;;5008079;28;20050;-77
2024/01/31 06:45:18;;;;;;;797.55;735.80;;;4.20;99.90;;;;;;4991857;28;20045;-77
2024/01/31 06:47:44;;;;;;;730.40;675.83;;;3.80;99.90;;;;;;5007852;28;20536;-77
2024/01/31 06:50:11;;;;;;;778.38;719.00;;;3.80;99.90;;;;;;5008308;28;20125;-77
2024/01/31 06:52:37;;;;;;;711.22;658.65;;;3.80;99.90;;;;;;5007460;28;20167;-77
2024/01/31 06:55:03;;;;;;;724.85;670.08;;;3.90;99.90;;;;;;5009628;28;20141;-77
2024/01/31 06:57:30;;;;;;;671.78;622.60;;;3.90;99.90;;;;;;5007328;28;20485;-77
2024/01/31 06:59:56;;;;;;;719.10;665.03;;;3.90;99.90;;;;;;4996003;28;20056;-77
2024/01/31 07:02:21;;;;;;;684.10;633.35;;;4.00;99.90;;;;;;4997375;28;20058;-77
2024/01/31 07:04:47;;;;;;;658.78;610.58;;;4.00;99.90;;;;;;4989133;28;20050;-77
2024/01/31 07:07:13;;;;;;;692.92;641.35;;;4.60;99.90;;;;;;4985797;28;20058;-77
2024/01/31 07:09:39;;;;;;;692.83;641.17;;;4.10;99.90;;;;;;4987661;28;20050;-76
2024/01/31 07:12:05;;;;;;;664.47;615.60;;;4.10;99.90;;;;;;4984832;28;20435;-77
2024/01/31 07:14:31;;;;;;;662.38;613.75;;;4.10;99.90;;;;;;5005244;28;20394;-77
2024/01/31 07:16:57;;;;;;;653.97;606.60;;;4.10;99.90;;;;;;4984945;28;20055;-77
2024/01/31 07:19:22;;;;;;;693.63;642.53;;;4.10;99.90;;;;;;4994282;28;20122;-76
2024/01/31 07:21:48;;;;;;;714.67;661.33;;;4.10;99.90;;;;;;4996293;28;20153;-76
2024/01/31 07:24:14;;;;;;;640.88;594.40;;;4.10;99.90;;;;;;4981013;28;20116;-76
2024/01/31 07:26:39;;;;;;;627.58;581.78;;;4.10;99.90;;;;;;4986627;28;20462;-76
2024/01/31 07:29:08;;;;;;;666.78;617.60;;;4.40;99.90;;;;;;5000141;28;20042;-77
2024/01/31 07:31:34;;;;;;;623.70;578.58;;;4.10;99.90;;;;;;5000061;28;20647;-76
2024/01/31 07:34:00;;;;;;;621.38;576.40;;;4.20;99.90;;;;;;4985828;28;20053;-76
2024/01/31 07:36:26;;;;;;;643.17;596.15;;;4.10;99.90;;;;;;4998179;28;20081;-76
2024/01/31 07:38:52;;;;;;;633.40;587.55;;;4.10;99.90;;;;;;4995923;28;20089;-76
2024/01/31 07:41:17;;;;;;;635.50;589.33;;;4.20;99.90;;;;;;4994732;28;20057;-76
2024/01/31 07:43:43;;;;;;;629.80;584.17;;;4.20;99.90;;;;;;5001494;28;20045;-76
2024/01/31 07:46:09;;;;;;;599.00;555.78;;;4.20;99.90;;;;;;5003502;28;20045;-76
2024/01/31 07:48:35;;;;;;;588.47;546.38;;;4.20;99.90;;;;;;5001978;28;20052;-76
2024/01/31 07:51:05;;;;;;;599.47;556.80;;;4.20;99.90;;;;;;5003697;28;20054;-76
2024/01/31 07:53:32;;;;;;;588.90;546.08;;;4.20;99.90;;;;;;5002624;28;20121;-76
2024/01/31 07:55:58;;;;;;;588.75;546.90;;;4.20;99.90;;;;;;5004133;28;20118;-76
2024/01/31 07:58:23;;;;;;;604.08;560.25;;;4.20;99.90;;;;;;4986747;28;20506;-76
2024/01/31 08:00:49;;;;;;;582.67;541.17;;;4.20;99.90;;;;;;4996053;28;20106;-76
2024/01/31 08:03:15;;;;;;;540.13;503.08;;;4.30;99.90;;;;;;5001749;28;20148;-76
2024/01/31 08:05:40;;;;;;;622.95;578.47;;;4.30;99.90;;;;;;5002864;28;20046;-77
2024/01/31 08:08:06;;;;;;;540.53;503.10;;;4.30;99.90;;;;;;4985475;28;20556;-77
2024/01/31 08:10:32;;;;;;;560.10;520.65;;;4.30;99.90;;;;;;4994602;28;20474;-77
2024/01/31 08:12:58;;;;;;;571.90;531.85;;;4.30;99.90;;;;;;5012610;28;20053;-77
2024/01/31 08:15:24;;;;;;;578.08;536.72;;;4.30;99.90;;;;;;4988788;28;20581;-77
2024/01/31 08:17:50;;;;;;;567.50;527.17;;;4.30;99.90;;;;;;4996220;28;20056;-77
2024/01/31 08:20:16;;;;;;;562.63;523.50;;;4.50;99.90;;;;;;4997746;28;20042;-77
2024/01/31 08:22:42;;;;;;;596.22;553.10;;;4.40;99.90;;;;;;4998043;28;20050;-77
2024/01/31 08:25:08;;;;;;;585.65;544.15;;;4.40;99.90;;;;;;4986164;28;20039;-76
2024/01/31 08:27:34;;;;;;;557.22;518.63;;;4.50;99.90;;;;;;4995047;28;20121;-77
2024/01/31 08:30:00;;;;;;;618.35;573.63;;;4.80;99.90;;;;;;4990326;28;20184;-77
2024/01/31 08:32:25;;;;;;;555.78;517.13;;;4.50;99.90;;;;;;4994433;28;20149;-77
2024/01/31 08:34:51;;;;;;;576.53;535.50;;;4.60;99.90;;;;;;4989102;28;20062;-77
2024/01/31 08:37:17;;;;;;;595.00;552.25;;;4.60;99.90;;;;;;4988742;28;20079;-76
2024/01/31 08:39:43;;;;;;;565.17;526.08;;;4.60;99.90;;;;;;4990564;28;20051;-76
2024/01/31 08:42:09;;;;;;;530.95;494.40;;;4.60;99.90;;;;;;4993714;28;20049;-76
2024/01/31 08:44:35;;;;;;;597.22;554.47;;;4.60;99.90;;;;;;4989996;28;20042;-77
2024/01/31 08:47:00;;;;;;;580.38;539.20;;;4.70;99.90;;;;;;4983286;28;20050;-76
2024/01/31 08:49:26;;;;;;;565.67;525.88;;;4.80;99.90;;;;;;4993567;28;20398;-76
2024/01/31 08:51:53;;;;;;;555.80;517.60;;;4.80;99.90;;;;;;4981618;28;20130;-76
2024/01/31 08:54:20;;;;;;;515.53;480.77;;;4.80;99.90;;;;;;4971975;28;20043;-76
2024/01/31 08:56:46;;;;;;;572.97;532.90;;;4.80;99.90;;;;;;4984681;28;20124;-76
2024/01/31 08:59:12;;;;;;;512.55;478.02;;;5.30;99.90;;;;;;4975745;28;20130;-76
2024/01/31 09:01:46;;;;;;;566.65;526.97;;;4.90;99.90;;;;;;4977584;28;20083;-76
2024/01/31 09:04:12;;;;;;;533.63;497.48;;;4.90;99.90;;;;;;4972901;28;20039;-76
2024/01/31 09:06:40;;;;;;;531.47;494.73;;;5.00;99.90;;;;;;4985736;28;20558;-76
2024/01/31 09:09:07;;;;;;;561.20;521.20;;;5.00;99.90;;;;;;4974948;28;20038;-76
2024/01/31 09:11:32;;;;;;;497.92;464.20;;;5.00;99.90;;;;;;4999430;28;20088;-76
2024/01/31 09:13:58;;;;;;;486.67;454.20;;;5.20;99.90;;;;;;4994978;28;20045;-76
2024/01/31 09:16:24;;;;;;;551.40;513.25;;;5.10;99.90;;;;;;4982964;28;20103;-76
2024/01/31 09:18:50;;;;;;;533.28;497.20;;;5.10;99.90;;;;;;4980865;28;20066;-76
2024/01/31 09:21:21;;;;;;;584.95;542.15;;;5.20;99.90;;;;;;4968937;28;20043;-76
2024/01/31 09:23:48;;;;;;;542.10;505.05;;;5.20;99.90;;;;;;4975637;28;20050;-76
2024/01/31 09:26:14;;;;;;;586.67;544.72;;;5.30;99.90;;;;;;4986507;28;20402;-76
2024/01/31 09:28:39;;;;;;;517.90;482.95;;;5.30;99.90;;;;;;4966130;28;20596;-76
2024/01/31 09:31:05;;;;;;;545.42;507.00;;;5.40;99.90;;;;;;4993674;28;20063;-76
2024/01/31 09:33:32;;;;;;;545.88;507.48;;;5.40;99.90;;;;;;4980802;28;20039;-76
2024/01/31 09:35:59;;;;;;;565.30;525.67;;;5.40;99.90;;;;;;4969753;28;20083;-76
2024/01/31 09:38:26;;;;;;;538.35;500.95;;;5.50;99.90;;;;;;4988563;28;20485;-77
2024/01/31 09:40:52;;;;;;;487.85;455.17;;;5.50;99.90;;;;;;4979757;28;20112;-77
2024/01/31 09:43:20;;;;;;;506.50;472.33;;;5.50;99.90;;;;;;4987024;28;20047;-77
2024/01/31 09:45:49;;;;;;;523.33;487.73;;;5.50;99.90;;;;;;4992738;28;20047;-77
2024/01/31 09:48:17;;;;;;;483.05;451.05;;;5.50;99.90;;;;;;4987425;28;20064;-76
2024/01/31 09:50:43;;;;;;;481.08;449.23;;;5.50;99.90;;;;;;4994492;28;20044;-77
2024/01/31 09:53:11;;;;;;;505.67;471.38;;;5.50;99.90;;;;;;5003778;28;20056;-77
2024/01/31 09:55:37;;;;;;;551.92;513.70;;;5.60;99.90;;;;;;4981377;28;20826;-76
2024/01/31 09:58:03;;;;;;;489.00;456.75;;;5.60;99.90;;;;;;4970699;28;20108;-77
2024/01/31 10:00:29;;;;;;;545.70;507.25;;;5.60;99.90;;;;;;4993660;28;20450;-76
2024/01/31 10:02:55;;;;;;;522.78;486.95;;;5.60;99.90;;;;;;4979802;28;20087;-76
2024/01/31 10:05:21;;;;;;;546.38;508.17;;;5.70;99.90;;;;;;4976215;28;20046;-76
2024/01/31 10:07:46;;;;;;;510.20;475.73;;;5.70;99.90;;;;;;4976227;28;20054;-77
2024/01/31 10:10:12;;;;;;;483.13;450.83;;;5.70;99.90;;;;;;4984458;28;20077;-76
2024/01/31 10:12:38;;;;;;;591.25;548.28;;;5.70;99.90;;;;;;4976756;28;20118;-77
2024/01/31 10:15:09;;;;;;;520.80;485.30;;;5.70;99.90;;;;;;4971119;28;20112;-77
2024/01/31 10:17:35;;;;;;;500.58;466.33;;;5.70;99.90;;;;;;4974724;28;20037;-77
2024/01/31 10:20:10;;;;;;;505.15;471.10;;;5.80;99.90;;;;;;4986576;28;20053;-76
2024/01/31 10:22:36;;;;;;;573.25;531.72;;;5.80;99.90;;;;;;4980100;28;20057;-76
2024/01/31 10:25:05;;;;;;;474.08;442.95;;;5.90;99.90;;;;;;4991387;28;20050;-77
2024/01/31 10:27:34;;;;;;;482.38;450.45;;;5.90;99.90;;;;;;4986578;28;20046;-77
2024/01/31 10:30:02;;;;;;;521.25;485.38;;;5.90;99.90;;;;;;5001854;28;20073;-76
2024/01/31 10:32:29;;;;;;;497.35;463.90;;;5.90;99.90;;;;;;5000665;28;20421;-77
2024/01/31 10:34:57;;;;;;;470.52;439.00;;;6.00;99.90;;;;;;5016153;28;20567;-77
2024/01/31 10:37:26;;;;;;;480.65;449.23;;;6.00;99.90;;;;;;4998151;28;20049;-77
2024/01/31 10:39:53;;;;;;;522.55;486.27;;;6.00;99.90;;;;;;4993887;28;20630;-77
2024/01/31 10:42:21;;;;;;;486.70;454.40;;;6.00;99.90;;;;;;4999938;28;20438;-77
2024/01/31 10:44:48;;;;;;;499.38;466.10;;;6.00;99.90;;;;;;4999836;28;20042;-77
2024/01/31 10:47:14;;;;;;;548.42;510.52;;;6.10;99.90;;;;;;5003071;28;20058;-77
2024/01/31 10:49:40;;;;;;;414.98;388.63;;;6.20;99.90;;;;;;5002955;28;20043;-77
2024/01/31 10:52:10;;;;;;;417.30;390.80;;;6.20;99.90;;;;;;5003407;28;20060;-77
2024/01/31 10:54:48;;;;;;;415.67;389.85;;;6.30;99.90;;;;;;5002085;28;20050;-77
2024/01/31 10:57:15;;;;;;;391.20;366.73;;;6.30;99.90;;;;;;5002417;28;20042;-76
2024/01/31 10:59:41;;;;;;;433.02;405.33;;;6.30;99.90;;;;;;4991316;28;20048;-77
2024/01/31 11:02:14;;;;;;;403.13;377.52;;;6.40;99.90;;;;;;4988697;28;20050;-77
2024/01/31 11:04:41;;;;;;;383.98;360.20;;;6.40;99.90;;;;;;5004413;28;20130;-77
2024/01/31 11:07:16;;;;;;;415.45;389.38;;;6.40;99.90;;;;;;5004598;28;20266;-77
2024/01/31 11:09:42;;;;;;;431.13;403.75;;;6.40;99.90;;;;;;4997958;28;20054;-77
2024/01/31 11:12:13;;;;;;;418.90;392.80;;;6.40;99.90;;;;;;4999248;28;20057;-77
2024/01/31 11:14:41;;;;;;;462.25;432.20;;;6.40;99.90;;;;;;5000844;28;20482;-77
2024/01/31 11:17:09;;;;;;;545.22;507.58;;;6.40;99.90;;;;;;5001054;28;20481;-77
2024/01/31 11:19:41;;;;;;;494.17;460.50;;;6.40;99.90;;;;;;4987070;28;20057;-77
2024/01/31 11:22:07;;;;;;;421.63;394.73;;;6.50;99.90;;;;;;4992860;28;20121;-77
2024/01/31 11:24:34;;;;;;;423.05;395.70;;;6.50;99.90;;;;;;5029216;28;20041;-77
2024/01/31 11:27:02;;;;;;;442.95;414.70;;;6.40;99.90;;;;;;4990070;28;20058;-76
2024/01/31 11:29:30;;;;;;;435.70;407.38;;;6.40;99.90;;;;;;4997442;28;20046;-77
2024/01/31 11:31:56;;;;;;;390.13;365.70;;;6.50;99.90;;;;;;4974564;28;20090;-77
2024/01/31 11:34:23;;;;;;;408.25;382.67;;;6.50;99.90;;;;;;4986425;28;20135;-77
2024/01/31 11:36:49;;;;;;;461.70;431.55;;;6.50;99.90;;;;;;4989804;28;20054;-77
2024/01/31 11:39:15;;;;;;;427.08;399.92;;;6.50;99.90;;;;;;4988710;28;20134;-77
2024/01/31 11:41:41;;;;;;;401.83;377.00;;;6.50;99.90;;;;;;4986736;28;20060;-76
2024/01/31 11:44:07;;;;;;;452.20;421.92;;;6.60;99.90;;;;;;4987136;28;20042;-77
2024/01/31 11:46:32;;;;;;;476.20;444.73;;;6.50;99.90;;;;;;4988032;28;20497;-77
2024/01/31 11:48:59;;;;;;;472.38;440.80;;;6.60;99.90;;;;;;4986359;28;20534;-77
2024/01/31 11:51:24;;;;;;;406.13;380.73;;;6.60;99.90;;;;;;4993206;28;20035;-77
2024/01/31 11:53:50;;;;;;;436.35;408.35;;;6.60;99.90;;;;;;5001306;28;20072;-76
2024/01/31 11:56:16;;;;;;;407.50;381.92;;;6.50;99.90;;;;;;4996306;28;20075;-77
2024/01/31 11:58:42;;;;;;;402.92;377.42;;;6.50;99.90;;;;;;4992461;28;20072;-77
2024/01/31 12:01:07;;;;;;;425.42;398.25;;;6.50;99.90;;;;;;5030044;28;20478;-77
2024/01/31 12:03:33;;;;;;;462.05;430.80;;;6.50;99.90;;;;;;4984933;28;20046;-77
2024/01/31 12:05:59;;;;;;;520.83;484.75;;;6.50;99.90;;;;;;4987157;28;20421;-77
2024/01/31 12:08:27;;;;;;;416.85;390.40;;;6.50;99.90;;;;;;4984530;28;20076;-77
2024/01/31 12:10:54;;;;;;;472.42;441.35;;;6.50;99.90;;;;;;4985326;28;20065;-77
2024/01/31 12:13:21;;;;;;;394.77;370.25;;;6.50;99.90;;;;;;4981960;28;20139;-77